createdAt,value
2023-02-25T00:00:00.145Z,978.20
2023-02-25T00:00:11.144Z,978.17
2023-02-25T00:00:22.127Z,978.17
2023-02-25T00:00:32.626Z,978.20
2023-02-25T00:00:43.626Z,978.08
2023-02-25T00:00:54.618Z,978.17
2023-02-25T00:01:05.117Z,978.22
2023-02-25T00:01:16.126Z,978.19
2023-02-25T00:01:27.149Z,978.21
2023-02-25T00:01:37.620Z,978.21
2023-02-25T00:02:02.984Z,978.22
2023-02-25T00:02:04.270Z,978.18
2023-02-25T00:02:10.664Z,978.17
2023-02-25T00:02:21.150Z,978.17
2023-02-25T00:02:31.650Z,978.23
2023-02-25T00:02:42.673Z,978.20
2023-02-25T00:02:53.307Z,978.20
2023-02-25T00:03:03.620Z,978.21
2023-02-25T00:03:14.227Z,978.24
2023-02-25T00:03:25.170Z,978.25
2023-02-25T00:03:35.637Z,978.20
2023-02-25T00:03:46.233Z,978.24
2023-02-25T00:03:57.098Z,978.25
2023-02-25T00:04:08.102Z,978.21
2023-02-25T00:04:19.099Z,978.23
2023-02-25T00:04:29.597Z,978.24
2023-02-25T00:04:40.096Z,978.24
2023-02-25T00:04:50.592Z,978.22
2023-02-25T00:05:01.088Z,978.27
2023-02-25T00:05:11.587Z,978.25
2023-02-25T00:05:22.591Z,978.25
2023-02-25T00:05:33.621Z,978.27
2023-02-25T00:05:44.613Z,978.25
2023-02-25T00:05:55.587Z,978.27
2023-02-25T00:06:06.583Z,978.27
2023-02-25T00:06:17.109Z,978.25
2023-02-25T00:06:27.583Z,978.27
2023-02-25T00:06:38.078Z,978.26
2023-02-25T00:06:48.586Z,978.29
2023-02-25T00:06:59.589Z,978.30
2023-02-25T00:07:10.086Z,978.31
2023-02-25T00:07:20.586Z,978.28
2023-02-25T00:07:31.578Z,978.26
2023-02-25T00:07:42.082Z,978.32
2023-02-25T00:07:52.591Z,978.27
2023-02-25T00:08:03.081Z,978.29
2023-02-25T00:08:14.082Z,978.26
2023-02-25T00:08:24.590Z,978.29
2023-02-25T00:08:35.582Z,978.27
2023-02-25T00:08:46.595Z,978.30
2023-02-25T00:08:57.584Z,978.29
2023-02-25T00:09:08.075Z,978.30
2023-02-25T00:09:18.595Z,978.29
2023-02-25T00:09:29.101Z,978.29
2023-02-25T00:09:40.080Z,978.27
2023-02-25T00:09:51.079Z,978.30
2023-02-25T00:10:01.575Z,978.29
2023-02-25T00:10:12.580Z,978.29
2023-02-25T00:10:23.583Z,978.30
2023-02-25T00:10:34.086Z,978.28
2023-02-25T00:10:44.580Z,978.26
2023-02-25T00:10:55.576Z,978.30
2023-02-25T00:11:06.591Z,978.28
2023-02-25T00:11:17.073Z,978.34
2023-02-25T00:11:27.628Z,978.28
2023-02-25T00:11:38.581Z,978.40
2023-02-25T00:11:49.078Z,978.31
2023-02-25T00:11:59.582Z,978.27
2023-02-25T00:12:10.076Z,978.27
2023-02-25T00:12:20.574Z,978.26
2023-02-25T00:12:31.082Z,978.32
2023-02-25T00:12:41.603Z,978.30
2023-02-25T00:12:52.613Z,978.24
2023-02-25T00:13:17.296Z,978.31
2023-02-25T00:13:18.413Z,978.33
2023-02-25T00:13:24.579Z,978.30
2023-02-25T00:13:35.085Z,978.34
2023-02-25T00:13:45.590Z,978.34
2023-02-25T00:13:56.091Z,978.32
2023-02-25T00:14:06.599Z,978.33
2023-02-25T00:14:17.618Z,978.44
2023-02-25T00:14:28.089Z,978.32
2023-02-25T00:14:39.088Z,978.37
2023-02-25T00:14:49.592Z,978.34
2023-02-25T00:15:00.126Z,978.31
2023-02-25T00:15:10.589Z,978.37
2023-02-25T00:15:21.591Z,978.29
2023-02-25T00:15:32.091Z,978.37
2023-02-25T00:15:42.600Z,978.34
2023-02-25T00:15:53.102Z,978.39
2023-02-25T00:16:03.598Z,978.39
2023-02-25T00:16:14.613Z,978.41
2023-02-25T00:16:25.505Z,978.38
2023-02-25T00:16:35.629Z,978.34
2023-02-25T00:16:46.685Z,978.40
2023-02-25T00:16:57.173Z,978.41
2023-02-25T00:17:07.705Z,978.33
2023-02-25T00:17:18.599Z,978.39
2023-02-25T00:17:29.602Z,978.40
2023-02-25T00:17:40.194Z,978.39
2023-02-25T00:17:51.119Z,978.37
2023-02-25T00:18:01.592Z,978.39
2023-02-25T00:18:12.099Z,978.44
2023-02-25T00:18:23.095Z,978.39
2023-02-25T00:18:34.102Z,978.41
2023-02-25T00:18:45.112Z,978.38
2023-02-25T00:18:55.621Z,978.46
2023-02-25T00:19:06.088Z,978.40
2023-02-25T00:19:16.597Z,978.40
2023-02-25T00:19:27.653Z,978.42
2023-02-25T00:19:38.113Z,978.37
2023-02-25T00:19:48.587Z,978.41
2023-02-25T00:19:59.589Z,978.44
2023-02-25T00:20:10.579Z,978.42
2023-02-25T00:20:21.585Z,978.41
2023-02-25T00:20:32.580Z,978.42
2023-02-25T00:20:43.090Z,978.42
2023-02-25T00:20:53.584Z,978.41
2023-02-25T00:21:04.574Z,978.44
2023-02-25T00:21:15.099Z,978.41
2023-02-25T00:21:26.121Z,978.40
2023-02-25T00:21:37.075Z,978.37
2023-02-25T00:21:47.592Z,978.42
2023-02-25T00:21:58.585Z,978.44
2023-02-25T00:22:09.566Z,978.44
2023-02-25T00:22:20.062Z,978.46
2023-02-25T00:22:31.063Z,978.46
2023-02-25T00:22:41.561Z,978.47
2023-02-25T00:22:52.062Z,978.44
2023-02-25T00:23:03.071Z,978.45
2023-02-25T00:23:14.063Z,978.45
2023-02-25T00:23:24.559Z,978.45
2023-02-25T00:23:35.552Z,978.45
2023-02-25T00:23:46.060Z,978.47
2023-02-25T00:24:04.405Z,978.46
2023-02-25T00:24:16.493Z,978.46
2023-02-25T00:24:20.064Z,978.46
2023-02-25T00:24:30.052Z,978.46
2023-02-25T00:24:40.554Z,978.46
2023-02-25T00:24:51.057Z,978.46
2023-02-25T00:25:01.561Z,978.47
2023-02-25T00:25:12.087Z,978.43
2023-02-25T00:25:22.555Z,978.41
2023-02-25T00:25:33.071Z,978.45
2023-02-25T00:25:43.559Z,978.48
2023-02-25T00:25:54.565Z,978.45
2023-02-25T00:26:05.571Z,978.48
2023-02-25T00:26:16.074Z,978.43
2023-02-25T00:26:26.563Z,978.42
2023-02-25T00:26:37.053Z,978.47
2023-02-25T00:26:48.054Z,978.44
2023-02-25T00:26:59.071Z,978.41
2023-02-25T00:27:09.566Z,978.45
2023-02-25T00:27:20.548Z,978.47
2023-02-25T00:27:31.562Z,978.48
2023-02-25T00:27:42.565Z,978.48
2023-02-25T00:27:53.556Z,978.47
2023-02-25T00:28:04.546Z,978.47
2023-02-25T00:28:15.052Z,978.46
2023-02-25T00:28:26.071Z,978.52
2023-02-25T00:28:37.048Z,978.43
2023-02-25T00:28:48.146Z,978.49
2023-02-25T00:28:59.076Z,978.49
2023-02-25T00:29:10.043Z,978.48
2023-02-25T00:29:21.037Z,978.51
2023-02-25T00:29:31.539Z,978.48
2023-02-25T00:29:42.042Z,978.47
2023-02-25T00:29:52.544Z,978.54
2023-02-25T00:30:03.541Z,978.50
2023-02-25T00:30:14.057Z,978.48
2023-02-25T00:30:25.037Z,978.55
2023-02-25T00:30:35.751Z,978.50
2023-02-25T00:30:46.141Z,978.51
2023-02-25T00:30:57.135Z,978.47
2023-02-25T00:31:08.193Z,978.54
2023-02-25T00:31:18.685Z,978.53
2023-02-25T00:31:29.659Z,978.52
2023-02-25T00:31:40.239Z,978.45
2023-02-25T00:31:50.848Z,978.51
2023-02-25T00:32:01.810Z,978.50
2023-02-25T00:32:12.712Z,978.54
2023-02-25T00:32:23.230Z,978.47
2023-02-25T00:32:33.547Z,978.46
2023-02-25T00:32:44.546Z,978.47
2023-02-25T00:32:55.064Z,978.48
2023-02-25T00:33:06.022Z,978.43
2023-02-25T00:33:16.514Z,978.48
2023-02-25T00:33:27.507Z,978.49
2023-02-25T00:33:38.536Z,978.46
2023-02-25T00:33:49.505Z,978.46
2023-02-25T00:33:59.999Z,978.45
2023-02-25T00:34:10.501Z,978.47
2023-02-25T00:34:21.013Z,978.49
2023-02-25T00:34:32.007Z,978.46
2023-02-25T00:34:43.006Z,978.48
2023-02-25T00:34:53.499Z,978.48
2023-02-25T00:35:04.541Z,978.49
2023-02-25T00:35:15.502Z,978.46
2023-02-25T00:35:26.008Z,978.49
2023-02-25T00:35:36.498Z,978.48
2023-02-25T00:35:47.499Z,978.53
2023-02-25T00:35:57.995Z,978.46
2023-02-25T00:36:09.006Z,978.50
2023-02-25T00:36:19.737Z,978.48
2023-02-25T00:36:30.504Z,978.47
2023-02-25T00:36:41.592Z,978.45
2023-02-25T00:36:52.572Z,978.46
2023-02-25T00:37:03.048Z,978.47
2023-02-25T00:37:14.068Z,978.46
2023-02-25T00:37:25.004Z,978.46
2023-02-25T00:37:35.510Z,978.46
2023-02-25T00:37:46.487Z,978.46
2023-02-25T00:38:13.729Z,978.48
2023-02-25T00:38:15.675Z,978.45
2023-02-25T00:38:19.987Z,978.45
2023-02-25T00:38:30.034Z,978.46
2023-02-25T00:38:40.504Z,978.47
2023-02-25T00:38:51.503Z,978.50
2023-02-25T00:39:02.575Z,978.48
2023-02-25T00:39:13.078Z,978.48
2023-02-25T00:39:23.542Z,978.44
2023-02-25T00:39:34.575Z,978.40
2023-02-25T00:39:45.699Z,978.41
2023-02-25T00:39:55.970Z,978.46
2023-02-25T00:40:06.968Z,978.42
2023-02-25T00:40:17.476Z,978.29
2023-02-25T00:40:27.964Z,978.39
2023-02-25T00:40:38.479Z,978.42
2023-02-25T00:40:48.967Z,978.38
2023-02-25T00:40:59.484Z,978.38
2023-02-25T00:41:10.467Z,978.43
2023-02-25T00:41:21.467Z,978.43
2023-02-25T00:41:32.457Z,978.41
2023-02-25T00:41:42.965Z,978.41
2023-02-25T00:41:53.463Z,978.42
2023-02-25T00:42:04.485Z,978.44
2023-02-25T00:42:14.960Z,978.37
2023-02-25T00:42:25.467Z,978.44
2023-02-25T00:42:36.454Z,978.44
2023-02-25T00:42:47.456Z,978.30
2023-02-25T00:42:58.495Z,978.43
2023-02-25T00:43:08.961Z,978.40
2023-02-25T00:43:19.944Z,978.42
2023-02-25T00:43:30.466Z,978.46
2023-02-25T00:43:40.967Z,978.44
2023-02-25T00:43:51.945Z,978.45
2023-02-25T00:44:02.937Z,978.44
2023-02-25T00:44:13.939Z,978.42
2023-02-25T00:44:24.946Z,978.43
2023-02-25T00:44:35.934Z,978.39
2023-02-25T00:44:46.454Z,978.40
2023-02-25T00:44:57.435Z,978.41
2023-02-25T00:45:07.933Z,978.39
2023-02-25T00:45:18.448Z,978.38
2023-02-25T00:45:28.932Z,978.42
2023-02-25T00:45:39.482Z,978.38
2023-02-25T00:45:49.926Z,978.28
2023-02-25T00:46:00.477Z,978.38
2023-02-25T00:46:11.560Z,978.38
2023-02-25T00:46:22.440Z,978.40
2023-02-25T00:46:32.468Z,978.37
2023-02-25T00:46:43.477Z,978.41
2023-02-25T00:46:54.431Z,978.36
2023-02-25T00:47:05.429Z,978.39
2023-02-25T00:47:16.431Z,978.39
2023-02-25T00:47:26.923Z,978.37
2023-02-25T00:47:37.923Z,978.43
2023-02-25T00:47:48.924Z,978.42
2023-02-25T00:47:59.423Z,978.40
2023-02-25T00:48:10.425Z,978.39
2023-02-25T00:48:21.429Z,978.37
2023-02-25T00:48:31.916Z,978.39
2023-02-25T00:48:42.429Z,978.42
2023-02-25T00:48:53.490Z,978.36
2023-02-25T00:49:03.910Z,978.42
2023-02-25T00:49:26.984Z,978.43
2023-02-25T00:49:32.241Z,978.44
2023-02-25T00:49:37.406Z,978.47
2023-02-25T00:49:46.899Z,978.46
2023-02-25T00:49:57.401Z,978.44
2023-02-25T00:50:07.900Z,978.35
2023-02-25T00:50:18.408Z,978.48
2023-02-25T00:50:28.908Z,978.46
2023-02-25T00:50:39.411Z,978.52
2023-02-25T00:50:49.917Z,978.50
2023-02-25T00:51:00.407Z,978.49
2023-02-25T00:51:10.901Z,978.51
2023-02-25T00:51:21.408Z,978.51
2023-02-25T00:51:32.416Z,978.53
2023-02-25T00:51:42.913Z,978.52
2023-02-25T00:51:53.416Z,978.50
2023-02-25T00:52:03.909Z,978.48
2023-02-25T00:52:14.413Z,978.50
2023-02-25T00:52:25.414Z,978.52
2023-02-25T00:52:35.914Z,978.52
2023-02-25T00:52:46.944Z,978.52
2023-02-25T00:52:57.408Z,978.54
2023-02-25T00:53:08.404Z,978.51
2023-02-25T00:53:18.915Z,978.54
2023-02-25T00:53:29.910Z,978.51
2023-02-25T00:53:40.905Z,978.47
2023-02-25T00:53:51.417Z,978.50
2023-02-25T00:54:02.456Z,978.50
2023-02-25T00:54:12.906Z,978.50
2023-02-25T00:54:23.436Z,978.48
2023-02-25T00:54:33.914Z,978.49
2023-02-25T00:54:44.412Z,978.54
2023-02-25T00:54:54.920Z,978.51
2023-02-25T00:55:05.406Z,978.56
2023-02-25T00:55:15.912Z,978.49
2023-02-25T00:55:26.427Z,978.55
2023-02-25T00:55:36.912Z,978.51
2023-02-25T00:55:47.412Z,978.52
2023-02-25T00:55:57.926Z,978.51
2023-02-25T00:56:08.407Z,978.52
2023-02-25T00:56:18.908Z,978.50
2023-02-25T00:56:29.428Z,978.54
2023-02-25T00:56:40.412Z,978.53
2023-02-25T00:56:50.906Z,978.53
2023-02-25T00:57:01.414Z,978.49
2023-02-25T00:57:11.902Z,978.55
2023-02-25T00:57:22.412Z,978.56
2023-02-25T00:57:32.912Z,978.55
2023-02-25T00:57:43.900Z,978.51
2023-02-25T00:57:54.421Z,978.50
2023-02-25T00:58:05.397Z,978.60
2023-02-25T00:58:16.406Z,978.56
2023-02-25T00:58:26.894Z,978.57
2023-02-25T00:58:37.420Z,978.56
2023-02-25T00:58:47.891Z,978.58
2023-02-25T00:58:58.392Z,978.50
2023-02-25T00:59:09.430Z,978.55
2023-02-25T00:59:19.885Z,978.58
2023-02-25T00:59:30.395Z,978.57
2023-02-25T00:59:41.424Z,978.60
2023-02-25T00:59:51.892Z,978.59
2023-02-25T01:00:02.889Z,978.57
2023-02-25T01:00:13.894Z,978.61
2023-02-25T01:00:24.412Z,978.61
2023-02-25T01:00:46.565Z,978.65
2023-02-25T01:00:52.127Z,978.58
2023-02-25T01:00:57.895Z,978.58
2023-02-25T01:01:07.424Z,978.58
2023-02-25T01:01:17.933Z,978.59
2023-02-25T01:01:28.994Z,978.60
2023-02-25T01:01:39.445Z,978.57
2023-02-25T01:01:50.471Z,978.59
2023-02-25T01:02:00.910Z,978.54
2023-02-25T01:02:11.885Z,978.60
2023-02-25T01:02:23.019Z,978.62
2023-02-25T01:02:33.428Z,978.56
2023-02-25T01:02:43.953Z,978.55
2023-02-25T01:02:54.432Z,978.55
2023-02-25T01:03:05.460Z,978.58
2023-02-25T01:03:15.884Z,978.60
2023-02-25T01:03:26.873Z,978.58
2023-02-25T01:03:37.374Z,978.56
2023-02-25T01:03:47.876Z,978.58
2023-02-25T01:03:58.903Z,978.59
2023-02-25T01:04:09.898Z,978.62
2023-02-25T01:04:20.372Z,978.61
2023-02-25T01:04:31.375Z,978.48
2023-02-25T01:04:42.387Z,978.48
2023-02-25T01:04:52.889Z,978.59
2023-02-25T01:05:03.371Z,978.56
2023-02-25T01:05:14.372Z,978.60
2023-02-25T01:05:24.888Z,978.53
2023-02-25T01:05:35.360Z,978.56
2023-02-25T01:05:45.863Z,978.57
2023-02-25T01:05:56.873Z,978.60
2023-02-25T01:06:07.859Z,978.58
2023-02-25T01:06:18.356Z,978.59
2023-02-25T01:06:29.374Z,978.61
2023-02-25T01:06:40.348Z,978.58
2023-02-25T01:06:50.848Z,978.59
2023-02-25T01:07:03.669Z,978.61
2023-02-25T01:07:12.887Z,978.55
2023-02-25T01:07:23.846Z,978.60
2023-02-25T01:07:34.344Z,978.57
2023-02-25T01:07:44.844Z,978.60
2023-02-25T01:07:55.338Z,978.59
2023-02-25T01:08:06.344Z,978.60
2023-02-25T01:08:16.836Z,978.62
2023-02-25T01:08:27.338Z,978.64
2023-02-25T01:08:37.838Z,978.65
2023-02-25T01:08:48.845Z,978.60
2023-02-25T01:08:59.343Z,978.64
2023-02-25T01:09:10.338Z,978.65
2023-02-25T01:09:21.332Z,978.67
2023-02-25T01:09:32.331Z,978.68
2023-02-25T01:09:42.867Z,978.56
2023-02-25T01:09:53.350Z,978.59
2023-02-25T01:10:04.318Z,978.56
2023-02-25T01:10:15.322Z,978.59
2023-02-25T01:10:26.314Z,978.60
2023-02-25T01:10:36.815Z,978.56
2023-02-25T01:10:47.316Z,978.64
2023-02-25T01:10:57.823Z,978.67
2023-02-25T01:11:08.321Z,978.63
2023-02-25T01:11:18.823Z,978.64
2023-02-25T01:11:29.857Z,978.59
2023-02-25T01:11:40.323Z,978.60
2023-02-25T01:11:50.818Z,978.65
2023-02-25T01:12:01.321Z,978.61
2023-02-25T01:12:11.820Z,978.63
2023-02-25T01:12:22.316Z,978.58
2023-02-25T01:12:33.314Z,978.61
2023-02-25T01:12:43.826Z,978.58
2023-02-25T01:12:54.818Z,978.58
2023-02-25T01:13:05.818Z,978.59
2023-02-25T01:13:16.818Z,978.56
2023-02-25T01:13:27.321Z,978.55
2023-02-25T01:13:37.857Z,978.58
2023-02-25T01:13:48.868Z,978.45
2023-02-25T01:13:59.841Z,978.53
2023-02-25T01:14:10.377Z,978.46
2023-02-25T01:14:21.306Z,978.46
2023-02-25T01:14:31.806Z,978.53
2023-02-25T01:14:42.808Z,978.49
2023-02-25T01:14:53.309Z,978.51
2023-02-25T01:15:04.333Z,978.48
2023-02-25T01:15:14.810Z,978.47
2023-02-25T01:15:25.804Z,978.44
2023-02-25T01:15:36.310Z,978.46
2023-02-25T01:15:47.403Z,978.48
2023-02-25T01:15:58.384Z,978.44
2023-02-25T01:16:08.887Z,978.41
2023-02-25T01:16:19.493Z,978.36
2023-02-25T01:16:30.393Z,978.37
2023-02-25T01:16:40.814Z,978.40
2023-02-25T01:16:51.303Z,978.32
2023-02-25T01:17:01.813Z,978.31
2023-02-25T01:17:12.309Z,978.34
2023-02-25T01:17:22.799Z,978.35
2023-02-25T01:17:33.313Z,978.38
2023-02-25T01:17:43.800Z,978.30
2023-02-25T01:17:54.309Z,978.32
2023-02-25T01:18:05.312Z,978.33
2023-02-25T01:18:16.305Z,978.31
2023-02-25T01:18:26.798Z,978.41
2023-02-25T01:18:37.305Z,978.38
2023-02-25T01:18:47.796Z,978.40
2023-02-25T01:18:58.299Z,978.35
2023-02-25T01:19:08.815Z,978.45
2023-02-25T01:19:19.303Z,978.44
2023-02-25T01:19:29.796Z,978.49
2023-02-25T01:19:40.305Z,978.47
2023-02-25T01:19:50.803Z,978.48
2023-02-25T01:20:01.305Z,978.49
2023-02-25T01:20:12.371Z,978.51
2023-02-25T01:20:22.831Z,978.51
2023-02-25T01:20:33.814Z,978.51
2023-02-25T01:20:44.296Z,978.52
2023-02-25T01:20:54.802Z,978.46
2023-02-25T01:21:05.307Z,978.47
2023-02-25T01:21:16.303Z,978.51
2023-02-25T01:21:27.298Z,978.55
2023-02-25T01:21:38.301Z,978.53
2023-02-25T01:21:48.797Z,978.56
2023-02-25T01:21:59.294Z,978.51
2023-02-25T01:22:10.303Z,978.56
2023-02-25T01:22:21.295Z,978.52
2023-02-25T01:22:32.324Z,978.53
2023-02-25T01:22:42.802Z,978.55
2023-02-25T01:22:53.298Z,978.54
2023-02-25T01:23:04.293Z,978.53
2023-02-25T01:23:15.283Z,978.55
2023-02-25T01:23:25.788Z,978.58
2023-02-25T01:23:36.778Z,978.63
2023-02-25T01:23:47.787Z,978.53
2023-02-25T01:23:58.899Z,978.52
2023-02-25T01:24:09.769Z,978.55
2023-02-25T01:24:20.276Z,978.56
2023-02-25T01:24:31.276Z,978.52
2023-02-25T01:24:42.262Z,978.51
2023-02-25T01:24:53.263Z,978.51
2023-02-25T01:25:04.266Z,978.47
2023-02-25T01:25:14.770Z,978.50
2023-02-25T01:25:25.776Z,978.51
2023-02-25T01:25:36.778Z,978.50
2023-02-25T01:25:47.259Z,978.54
2023-02-25T01:25:58.245Z,978.51
2023-02-25T01:26:08.744Z,978.48
2023-02-25T01:26:19.241Z,978.44
2023-02-25T01:26:30.328Z,978.49
2023-02-25T01:26:40.738Z,978.45
2023-02-25T01:26:51.748Z,978.44
2023-02-25T01:27:02.736Z,978.49
2023-02-25T01:27:13.264Z,978.50
2023-02-25T01:27:24.231Z,978.52
2023-02-25T01:27:35.230Z,978.51
2023-02-25T01:27:46.227Z,978.53
2023-02-25T01:27:57.228Z,978.51
2023-02-25T01:28:08.230Z,978.52
2023-02-25T01:28:19.226Z,978.51
2023-02-25T01:28:30.225Z,978.50
2023-02-25T01:28:41.223Z,978.51
2023-02-25T01:28:52.248Z,978.49
2023-02-25T01:29:03.224Z,978.49
2023-02-25T01:29:13.719Z,978.49
2023-02-25T01:29:24.235Z,978.49
2023-02-25T01:29:34.715Z,978.49
2023-02-25T01:29:45.221Z,978.51
2023-02-25T01:29:55.720Z,978.54
2023-02-25T01:30:06.214Z,978.52
2023-02-25T01:30:16.718Z,978.53
2023-02-25T01:30:27.716Z,978.50
2023-02-25T01:30:38.276Z,978.54
2023-02-25T01:30:48.753Z,978.51
2023-02-25T01:30:59.403Z,978.55
2023-02-25T01:31:09.778Z,978.57
2023-02-25T01:31:20.487Z,978.56
2023-02-25T01:31:31.627Z,978.51
2023-02-25T01:31:41.963Z,978.54
2023-02-25T01:31:52.438Z,978.60
2023-02-25T01:32:02.953Z,978.56
2023-02-25T01:32:13.434Z,978.57
2023-02-25T01:32:23.835Z,978.51
2023-02-25T01:32:34.340Z,978.53
2023-02-25T01:32:45.318Z,978.55
2023-02-25T01:32:56.239Z,978.59
2023-02-25T01:33:06.736Z,978.56
2023-02-25T01:33:17.707Z,978.59
2023-02-25T01:33:28.213Z,978.57
2023-02-25T01:33:39.204Z,978.52
2023-02-25T01:33:50.204Z,978.61
2023-02-25T01:34:00.697Z,978.56
2023-02-25T01:34:11.695Z,978.60
2023-02-25T01:34:22.203Z,978.61
2023-02-25T01:34:32.691Z,978.59
2023-02-25T01:34:43.694Z,978.54
2023-02-25T01:34:54.200Z,978.56
2023-02-25T01:35:05.211Z,978.63
2023-02-25T01:35:15.694Z,978.60
2023-02-25T01:35:26.226Z,978.62
2023-02-25T01:35:37.193Z,978.58
2023-02-25T01:35:48.247Z,978.59
2023-02-25T01:35:58.698Z,978.60
2023-02-25T01:36:09.697Z,978.63
2023-02-25T01:36:20.539Z,978.66
2023-02-25T01:36:30.689Z,978.63
2023-02-25T01:36:41.201Z,978.64
2023-02-25T01:36:52.211Z,978.61
2023-02-25T01:37:03.187Z,978.64
2023-02-25T01:37:14.212Z,978.65
2023-02-25T01:37:25.176Z,978.58
2023-02-25T01:37:36.174Z,978.64
2023-02-25T01:37:47.170Z,978.65
2023-02-25T01:37:58.169Z,978.67
2023-02-25T01:38:09.165Z,978.66
2023-02-25T01:38:20.175Z,978.65
2023-02-25T01:38:31.158Z,978.67
2023-02-25T01:38:42.159Z,978.71
2023-02-25T01:38:53.169Z,978.67
2023-02-25T01:39:04.147Z,978.65
2023-02-25T01:39:14.654Z,978.68
2023-02-25T01:39:26.550Z,978.65
2023-02-25T01:39:36.151Z,978.64
2023-02-25T01:39:47.148Z,978.67
2023-02-25T01:39:58.148Z,978.68
2023-02-25T01:40:09.141Z,978.70
2023-02-25T01:40:19.635Z,978.62
2023-02-25T01:40:30.631Z,978.60
2023-02-25T01:40:41.129Z,978.69
2023-02-25T01:40:52.126Z,978.61
2023-02-25T01:41:02.623Z,978.60
2023-02-25T01:41:13.642Z,978.53
2023-02-25T01:41:24.614Z,978.53
2023-02-25T01:41:35.648Z,978.50
2023-02-25T01:41:46.612Z,978.51
2023-02-25T01:41:57.630Z,978.47
2023-02-25T01:42:08.111Z,978.45
2023-02-25T01:42:19.127Z,978.44
2023-02-25T01:42:29.614Z,978.43
2023-02-25T01:42:40.616Z,978.44
2023-02-25T01:42:51.151Z,978.42
2023-02-25T01:43:02.131Z,978.47
2023-02-25T01:43:12.610Z,978.47
2023-02-25T01:43:23.610Z,978.45
2023-02-25T01:43:34.608Z,978.44
2023-02-25T01:43:45.613Z,978.49
2023-02-25T01:43:56.127Z,978.52
2023-02-25T01:44:07.114Z,978.48
2023-02-25T01:44:17.621Z,978.47
2023-02-25T01:44:28.610Z,978.48
2023-02-25T01:44:39.607Z,978.44
2023-02-25T01:44:50.604Z,978.46
2023-02-25T01:45:01.120Z,978.45
2023-02-25T01:45:11.610Z,978.50
2023-02-25T01:45:22.136Z,978.43
2023-02-25T01:45:33.115Z,978.49
2023-02-25T01:45:44.116Z,978.44
2023-02-25T01:45:55.102Z,978.47
2023-02-25T01:46:05.604Z,978.44
2023-02-25T01:46:16.173Z,978.44
2023-02-25T01:46:26.670Z,978.47
2023-02-25T01:46:37.705Z,978.45
2023-02-25T01:46:48.143Z,978.45
2023-02-25T01:46:59.301Z,978.46
2023-02-25T01:47:09.600Z,978.45
2023-02-25T01:47:20.117Z,978.47
2023-02-25T01:47:30.600Z,978.44
2023-02-25T01:47:41.598Z,978.45
2023-02-25T01:47:52.613Z,978.46
2023-02-25T01:48:03.097Z,978.44
2023-02-25T01:48:14.093Z,978.47
2023-02-25T01:48:24.604Z,978.43
2023-02-25T01:48:35.581Z,978.45
2023-02-25T01:48:46.579Z,978.47
2023-02-25T01:48:57.079Z,978.43
2023-02-25T01:49:08.078Z,978.44
2023-02-25T01:49:18.583Z,978.41
2023-02-25T01:49:29.578Z,978.45
2023-02-25T01:49:40.078Z,978.40
2023-02-25T01:49:51.066Z,978.44
2023-02-25T01:50:01.564Z,978.46
2023-02-25T01:50:12.078Z,978.45
2023-02-25T01:50:23.067Z,978.44
2023-02-25T01:50:33.569Z,978.47
2023-02-25T01:50:44.069Z,978.46
2023-02-25T01:50:55.065Z,978.42
2023-02-25T01:51:06.066Z,978.45
2023-02-25T01:51:17.063Z,978.45
2023-02-25T01:51:27.574Z,978.46
2023-02-25T01:51:38.581Z,978.39
2023-02-25T01:51:49.077Z,978.42
2023-02-25T01:51:59.552Z,978.44
2023-02-25T01:52:10.070Z,978.45
2023-02-25T01:52:21.044Z,978.46
2023-02-25T01:52:31.548Z,978.41
2023-02-25T01:52:42.553Z,978.47
2023-02-25T01:52:53.537Z,978.44
2023-02-25T01:53:04.041Z,978.50
2023-02-25T01:53:15.033Z,978.52
2023-02-25T01:53:25.532Z,978.35
2023-02-25T01:53:36.035Z,978.46
2023-02-25T01:53:47.058Z,978.46
2023-02-25T01:53:57.529Z,978.37
2023-02-25T01:54:08.526Z,978.43
2023-02-25T01:54:19.528Z,978.42
2023-02-25T01:54:30.027Z,978.46
2023-02-25T01:54:41.024Z,978.44
2023-02-25T01:54:52.029Z,978.44
2023-02-25T01:55:03.015Z,978.42
2023-02-25T01:55:14.012Z,978.42
2023-02-25T01:55:25.012Z,978.43
2023-02-25T01:55:36.007Z,978.46
2023-02-25T01:55:47.001Z,978.45
2023-02-25T01:55:57.503Z,978.45
2023-02-25T01:56:08.498Z,978.50
2023-02-25T01:56:18.993Z,978.47
2023-02-25T01:56:29.992Z,978.53
2023-02-25T01:56:41.017Z,978.48
2023-02-25T01:56:51.987Z,978.46
2023-02-25T01:57:03.015Z,978.47
2023-02-25T01:57:13.981Z,978.43
2023-02-25T01:57:24.982Z,978.51
2023-02-25T01:57:35.981Z,978.48
2023-02-25T01:57:46.980Z,978.47
2023-02-25T01:57:57.999Z,978.44
2023-02-25T01:58:08.965Z,978.47
2023-02-25T01:58:19.462Z,978.48
2023-02-25T01:58:29.995Z,978.38
2023-02-25T01:58:40.970Z,978.50
2023-02-25T01:58:51.979Z,978.48
2023-02-25T01:59:02.476Z,978.47
2023-02-25T01:59:13.450Z,978.48
2023-02-25T01:59:24.486Z,978.47
2023-02-25T01:59:35.449Z,978.43
2023-02-25T01:59:46.451Z,978.38
2023-02-25T01:59:57.451Z,978.38
2023-02-25T02:00:08.447Z,978.45
2023-02-25T02:00:19.446Z,978.43
2023-02-25T02:00:30.511Z,978.41
2023-02-25T02:00:41.519Z,978.39
2023-02-25T02:00:51.982Z,978.36
2023-02-25T02:01:03.005Z,978.37
2023-02-25T02:01:13.485Z,978.36
2023-02-25T02:01:23.942Z,978.34
2023-02-25T02:01:34.433Z,978.39
2023-02-25T02:01:44.946Z,978.39
2023-02-25T02:01:55.990Z,978.40
2023-02-25T02:02:06.979Z,978.40
2023-02-25T02:02:17.483Z,978.44
2023-02-25T02:02:28.041Z,978.41
2023-02-25T02:02:39.055Z,978.45
2023-02-25T02:02:50.062Z,978.37
2023-02-25T02:03:00.453Z,978.40
2023-02-25T02:03:11.426Z,978.45
2023-02-25T02:03:22.417Z,978.45
2023-02-25T02:03:32.934Z,978.43
2023-02-25T02:03:43.920Z,978.42
2023-02-25T02:03:54.924Z,978.43
2023-02-25T02:04:05.409Z,978.43
2023-02-25T02:04:16.414Z,978.45
2023-02-25T02:04:27.585Z,978.46
2023-02-25T02:04:38.406Z,978.46
2023-02-25T02:04:49.407Z,978.35
2023-02-25T02:04:59.903Z,978.44
2023-02-25T02:05:10.401Z,978.42
2023-02-25T02:05:21.406Z,978.40
2023-02-25T02:05:31.943Z,978.42
2023-02-25T02:05:42.405Z,978.42
2023-02-25T02:05:52.907Z,978.41
2023-02-25T02:06:03.899Z,978.47
2023-02-25T02:06:14.396Z,978.44
2023-02-25T02:06:25.496Z,978.40
2023-02-25T02:06:36.414Z,978.42
2023-02-25T02:06:47.396Z,978.43
2023-02-25T02:06:57.916Z,978.40
2023-02-25T02:07:08.917Z,978.39
2023-02-25T02:07:19.909Z,978.49
2023-02-25T02:07:30.897Z,978.38
2023-02-25T02:07:41.391Z,978.45
2023-02-25T02:07:51.910Z,978.48
2023-02-25T02:08:02.398Z,978.44
2023-02-25T02:08:13.390Z,978.45
2023-02-25T02:08:23.991Z,978.46
2023-02-25T02:08:34.892Z,978.43
2023-02-25T02:08:45.400Z,978.45
2023-02-25T02:08:56.387Z,978.48
2023-02-25T02:09:07.396Z,978.48
2023-02-25T02:09:17.895Z,978.48
2023-02-25T02:09:28.380Z,978.45
2023-02-25T02:09:38.892Z,978.51
2023-02-25T02:09:49.877Z,978.46
2023-02-25T02:10:00.392Z,978.50
2023-02-25T02:10:11.375Z,978.46
2023-02-25T02:10:22.381Z,978.52
2023-02-25T02:10:33.383Z,978.48
2023-02-25T02:10:43.879Z,978.52
2023-02-25T02:10:54.391Z,978.53
2023-02-25T02:11:04.878Z,978.54
2023-02-25T02:11:15.379Z,978.51
2023-02-25T02:11:25.883Z,978.53
2023-02-25T02:11:36.379Z,978.56
2023-02-25T02:11:46.878Z,978.55
2023-02-25T02:11:57.395Z,978.54
2023-02-25T02:12:07.913Z,978.53
2023-02-25T02:12:18.891Z,978.52
2023-02-25T02:12:29.393Z,978.52
2023-02-25T02:12:40.378Z,978.47
2023-02-25T02:12:50.883Z,978.51
2023-02-25T02:13:01.379Z,978.53
2023-02-25T02:13:11.881Z,978.54
2023-02-25T02:13:22.877Z,978.52
2023-02-25T02:13:33.883Z,978.50
2023-02-25T02:13:44.877Z,978.54
2023-02-25T02:13:55.893Z,978.55